sensor_id;sensor_type;location;lat;lon;timestamp;P1;durP1;ratioP1;P2;durP2;ratioP2
7737;SDS011;29398;45.328;5.558;2022-11-15T00:01:37;22.98;;;18.95;;
7737;SDS011;29398;45.328;5.558;2022-11-15T00:02:59;23.85;;;18.52;;
7737;SDS011;29398;45.328;5.558;2022-11-15T00:04:19;25.73;;;19.70;;
7737;SDS011;29398;45.328;5.558;2022-11-15T00:05:39;25.42;;;19.90;;
7737;SDS011;29398;45.328;5.558;2022-11-15T00:06:59;23.75;;;18.92;;
7737;SDS011;29398;45.328;5.558;2022-11-15T00:08:19;20.90;;;18.17;;
7737;SDS011;29398;45.328;5.558;2022-11-15T00:09:40;21.35;;;18.13;;
7737;SDS011;29398;45.328;5.558;2022-11-15T00:11:01;26.58;;;19.30;;
7737;SDS011;29398;45.328;5.558;2022-11-15T00:12:23;21.67;;;18.63;;
7737;SDS011;29398;45.328;5.558;2022-11-15T00:13:43;22.90;;;17.85;;
7737;SDS011;29398;45.328;5.558;2022-11-15T00:15:03;23.55;;;19.65;;
7737;SDS011;29398;45.328;5.558;2022-11-15T00:16:24;23.08;;;18.73;;
7737;SDS011;29398;45.328;5.558;2022-11-15T00:17:47;22.55;;;17.88;;
7737;SDS011;29398;45.328;5.558;2022-11-15T00:19:07;21.40;;;17.30;;
7737;SDS011;29398;45.328;5.558;2022-11-15T00:21:48;21.25;;;17.60;;
7737;SDS011;29398;45.328;5.558;2022-11-15T00:23:08;26.08;;;19.50;;
7737;SDS011;29398;45.328;5.558;2022-11-15T00:24:28;28.77;;;20.42;;
7737;SDS011;29398;45.328;5.558;2022-11-15T00:25:54;23.23;;;20.25;;
7737;SDS011;29398;45.328;5.558;2022-11-15T00:27:16;30.27;;;21.40;;
7737;SDS011;29398;45.328;5.558;2022-11-15T00:28:37;26.02;;;21.25;;
7737;SDS011;29398;45.328;5.558;2022-11-15T00:29:56;25.05;;;20.23;;
7737;SDS011;29398;45.328;5.558;2022-11-15T00:32:37;25.75;;;20.00;;
7737;SDS011;29398;45.328;5.558;2022-11-15T00:33:58;29.08;;;20.50;;
7737;SDS011;29398;45.328;5.558;2022-11-15T00:35:19;20.58;;;14.63;;
7737;SDS011;29398;45.328;5.558;2022-11-15T00:36:39;23.33;;;19.83;;
7737;SDS011;29398;45.328;5.558;2022-11-15T00:37:59;27.67;;;21.05;;
7737;SDS011;29398;45.328;5.558;2022-11-15T00:39:20;40.00;;;27.30;;
7737;SDS011;29398;45.328;5.558;2022-11-15T00:40:40;42.22;;;27.70;;
7737;SDS011;29398;45.328;5.558;2022-11-15T00:42:00;48.80;;;30.13;;
7737;SDS011;29398;45.328;5.558;2022-11-15T00:43:22;58.10;;;32.08;;
7737;SDS011;29398;45.328;5.558;2022-11-15T00:44:42;44.25;;;28.85;;
7737;SDS011;29398;45.328;5.558;2022-11-15T00:47:22;39.60;;;24.85;;
7737;SDS011;29398;45.328;5.558;2022-11-15T00:48:42;30.65;;;23.05;;
7737;SDS011;29398;45.328;5.558;2022-11-15T00:50:02;25.60;;;20.85;;
7737;SDS011;29398;45.328;5.558;2022-11-15T00:51:23;26.42;;;22.02;;
7737;SDS011;29398;45.328;5.558;2022-11-15T00:52:44;38.30;;;23.92;;
7737;SDS011;29398;45.328;5.558;2022-11-15T00:54:04;34.42;;;22.80;;
7737;SDS011;29398;45.328;5.558;2022-11-15T00:55:24;23.05;;;19.75;;
7737;SDS011;29398;45.328;5.558;2022-11-15T00:56:43;27.83;;;21.80;;
7737;SDS011;29398;45.328;5.558;2022-11-15T00:58:04;25.23;;;19.90;;
7737;SDS011;29398;45.328;5.558;2022-11-15T00:59:25;23.55;;;19.15;;
7737;SDS011;29398;45.328;5.558;2022-11-15T01:00:46;21.92;;;18.95;;
7737;SDS011;29398;45.328;5.558;2022-11-15T01:02:05;33.38;;;22.73;;
7737;SDS011;29398;45.328;5.558;2022-11-15T01:03:26;36.85;;;23.52;;
7737;SDS011;29398;45.328;5.558;2022-11-15T01:04:46;24.88;;;19.92;;
7737;SDS011;29398;45.328;5.558;2022-11-15T01:07:26;39.65;;;22.05;;
7737;SDS011;29398;45.328;5.558;2022-11-15T01:08:47;24.33;;;19.80;;
7737;SDS011;29398;45.328;5.558;2022-11-15T01:10:10;21.27;;;18.17;;
7737;SDS011;29398;45.328;5.558;2022-11-15T01:11:30;23.63;;;19.02;;
7737;SDS011;29398;45.328;5.558;2022-11-15T01:12:51;25.92;;;19.13;;
7737;SDS011;29398;45.328;5.558;2022-11-15T01:14:11;27.58;;;21.38;;
7737;SDS011;29398;45.328;5.558;2022-11-15T01:15:32;26.70;;;21.50;;
7737;SDS011;29398;45.328;5.558;2022-11-15T01:16:52;26.73;;;21.10;;
7737;SDS011;29398;45.328;5.558;2022-11-15T01:18:13;28.25;;;21.75;;
7737;SDS011;29398;45.328;5.558;2022-11-15T01:19:32;32.33;;;24.20;;
7737;SDS011;29398;45.328;5.558;2022-11-15T01:22:12;26.08;;;21.10;;
7737;SDS011;29398;45.328;5.558;2022-11-15T01:23:33;27.33;;;21.83;;
7737;SDS011;29398;45.328;5.558;2022-11-15T01:24:52;15.60;;;13.95;;
7737;SDS011;29398;45.328;5.558;2022-11-15T01:27:34;21.23;;;18.75;;
7737;SDS011;29398;45.328;5.558;2022-11-15T01:28:55;22.58;;;18.77;;
7737;SDS011;29398;45.328;5.558;2022-11-15T01:31:36;20.33;;;16.77;;
7737;SDS011;29398;45.328;5.558;2022-11-15T01:32:57;18.25;;;15.65;;
7737;SDS011;29398;45.328;5.558;2022-11-15T01:34:16;19.13;;;16.15;;
7737;SDS011;29398;45.328;5.558;2022-11-15T01:35:38;20.90;;;17.30;;
7737;SDS011;29398;45.328;5.558;2022-11-15T01:36:58;19.15;;;16.08;;
7737;SDS011;29398;45.328;5.558;2022-11-15T01:38:19;16.42;;;14.70;;
7737;SDS011;29398;45.328;5.558;2022-11-15T01:39:39;19.67;;;16.45;;
7737;SDS011;29398;45.328;5.558;2022-11-15T01:40:59;18.90;;;16.90;;
7737;SDS011;29398;45.328;5.558;2022-11-15T01:42:19;21.55;;;17.33;;
7737;SDS011;29398;45.328;5.558;2022-11-15T01:43:40;22.60;;;18.55;;
7737;SDS011;29398;45.328;5.558;2022-11-15T01:45:00;22.10;;;18.75;;
7737;SDS011;29398;45.328;5.558;2022-11-15T01:46:25;23.17;;;18.92;;
7737;SDS011;29398;45.328;5.558;2022-11-15T01:47:51;27.60;;;19.00;;
7737;SDS011;29398;45.328;5.558;2022-11-15T01:49:14;25.40;;;19.70;;
7737;SDS011;29398;45.328;5.558;2022-11-15T01:50:37;20.98;;;17.65;;
7737;SDS011;29398;45.328;5.558;2022-11-15T01:51:58;20.15;;;17.40;;
7737;SDS011;29398;45.328;5.558;2022-11-15T01:53:19;22.23;;;17.88;;
7737;SDS011;29398;45.328;5.558;2022-11-15T01:54:43;21.30;;;18.25;;
7737;SDS011;29398;45.328;5.558;2022-11-15T01:56:03;22.50;;;18.45;;
7737;SDS011;29398;45.328;5.558;2022-11-15T01:57:28;31.20;;;20.23;;
7737;SDS011;29398;45.328;5.558;2022-11-15T01:58:47;25.23;;;20.23;;
7737;SDS011;29398;45.328;5.558;2022-11-15T02:00:10;31.73;;;21.10;;
7737;SDS011;29398;45.328;5.558;2022-11-15T02:01:32;33.28;;;22.88;;
7737;SDS011;29398;45.328;5.558;2022-11-15T02:02:54;29.77;;;21.33;;
7737;SDS011;29398;45.328;5.558;2022-11-15T02:04:15;24.10;;;20.40;;
7737;SDS011;29398;45.328;5.558;2022-11-15T02:05:39;31.17;;;23.30;;
7737;SDS011;29398;45.328;5.558;2022-11-15T02:07:00;26.85;;;21.88;;
7737;SDS011;29398;45.328;5.558;2022-11-15T02:08:23;24.83;;;20.55;;
7737;SDS011;29398;45.328;5.558;2022-11-15T02:09:47;24.67;;;21.15;;
7737;SDS011;29398;45.328;5.558;2022-11-15T02:11:08;28.35;;;22.58;;
7737;SDS011;29398;45.328;5.558;2022-11-15T02:12:28;38.10;;;26.30;;
7737;SDS011;29398;45.328;5.558;2022-11-15T02:15:08;33.55;;;24.02;;
7737;SDS011;29398;45.328;5.558;2022-11-15T02:16:31;28.92;;;21.88;;
7737;SDS011;29398;45.328;5.558;2022-11-15T02:18:07;27.10;;;22.27;;
7737;SDS011;29398;45.328;5.558;2022-11-15T02:21:22;24.52;;;21.42;;
7737;SDS011;29398;45.328;5.558;2022-11-15T02:22:51;27.33;;;21.80;;
7737;SDS011;29398;45.328;5.558;2022-11-15T02:24:44;25.40;;;21.38;;
7737;SDS011;29398;45.328;5.558;2022-11-15T02:26:29;27.20;;;22.27;;
7737;SDS011;29398;45.328;5.558;2022-11-15T02:28:25;26.00;;;21.75;;
7737;SDS011;29398;45.328;5.558;2022-11-15T02:30:03;33.33;;;24.85;;
7737;SDS011;29398;45.328;5.558;2022-11-15T02:31:39;27.10;;;22.25;;
7737;SDS011;29398;45.328;5.558;2022-11-15T02:33:08;30.38;;;23.55;;
7737;SDS011;29398;45.328;5.558;2022-11-15T02:34:35;32.17;;;24.52;;
7737;SDS011;29398;45.328;5.558;2022-11-15T02:36:05;34.75;;;23.58;;
7737;SDS011;29398;45.328;5.558;2022-11-15T02:37:32;45.38;;;25.83;;
7737;SDS011;29398;45.328;5.558;2022-11-15T02:38:59;38.78;;;26.90;;
7737;SDS011;29398;45.328;5.558;2022-11-15T02:40:27;38.25;;;25.58;;
7737;SDS011;29398;45.328;5.558;2022-11-15T02:41:57;48.17;;;28.25;;
7737;SDS011;29398;45.328;5.558;2022-11-15T02:43:23;51.17;;;29.85;;
7737;SDS011;29398;45.328;5.558;2022-11-15T02:45:06;30.02;;;23.63;;
7737;SDS011;29398;45.328;5.558;2022-11-15T02:46:34;32.70;;;25.02;;
7737;SDS011;29398;45.328;5.558;2022-11-15T02:48:16;40.00;;;27.13;;
7737;SDS011;29398;45.328;5.558;2022-11-15T02:49:37;39.58;;;26.55;;
7737;SDS011;29398;45.328;5.558;2022-11-15T02:50:59;45.80;;;28.58;;
7737;SDS011;29398;45.328;5.558;2022-11-15T02:52:22;37.05;;;25.98;;
7737;SDS011;29398;45.328;5.558;2022-11-15T02:53:44;40.00;;;27.25;;
7737;SDS011;29398;45.328;5.558;2022-11-15T02:55:05;37.67;;;26.00;;
7737;SDS011;29398;45.328;5.558;2022-11-15T02:56:40;33.40;;;24.38;;
7737;SDS011;29398;45.328;5.558;2022-11-15T02:58:05;40.50;;;25.77;;
7737;SDS011;29398;45.328;5.558;2022-11-15T02:59:43;28.00;;;22.83;;
7737;SDS011;29398;45.328;5.558;2022-11-15T03:01:18;30.25;;;24.35;;
7737;SDS011;29398;45.328;5.558;2022-11-15T03:02:52;27.23;;;22.42;;
7737;SDS011;29398;45.328;5.558;2022-11-15T03:04:27;24.20;;;19.60;;
7737;SDS011;29398;45.328;5.558;2022-11-15T03:05:56;22.25;;;18.02;;
7737;SDS011;29398;45.328;5.558;2022-11-15T03:07:24;19.17;;;17.10;;
7737;SDS011;29398;45.328;5.558;2022-11-15T03:08:52;19.75;;;17.70;;
7737;SDS011;29398;45.328;5.558;2022-11-15T03:10:19;18.52;;;16.55;;
7737;SDS011;29398;45.328;5.558;2022-11-15T03:11:46;17.25;;;15.13;;
7737;SDS011;29398;45.328;5.558;2022-11-15T03:13:10;15.30;;;13.55;;
7737;SDS011;29398;45.328;5.558;2022-11-15T03:14:37;14.20;;;12.75;;
7737;SDS011;29398;45.328;5.558;2022-11-15T03:16:03;13.02;;;11.60;;
7737;SDS011;29398;45.328;5.558;2022-11-15T03:17:27;12.23;;;10.15;;
7737;SDS011;29398;45.328;5.558;2022-11-15T03:18:52;11.82;;;9.73;;
7737;SDS011;29398;45.328;5.558;2022-11-15T03:20:14;10.23;;;8.93;;
7737;SDS011;29398;45.328;5.558;2022-11-15T03:21:37;9.73;;;8.75;;
7737;SDS011;29398;45.328;5.558;2022-11-15T03:22:59;9.85;;;7.93;;
7737;SDS011;29398;45.328;5.558;2022-11-15T03:24:25;9.27;;;7.70;;
7737;SDS011;29398;45.328;5.558;2022-11-15T03:25:48;8.63;;;6.80;;
7737;SDS011;29398;45.328;5.558;2022-11-15T03:27:11;8.05;;;6.75;;
7737;SDS011;29398;45.328;5.558;2022-11-15T03:28:35;6.63;;;6.00;;
7737;SDS011;29398;45.328;5.558;2022-11-15T03:29:59;6.15;;;5.65;;
7737;SDS011;29398;45.328;5.558;2022-11-15T03:31:23;7.43;;;5.55;;
7737;SDS011;29398;45.328;5.558;2022-11-15T03:33:02;8.23;;;5.13;;
7737;SDS011;29398;45.328;5.558;2022-11-15T03:34:27;5.65;;;5.13;;
7737;SDS011;29398;45.328;5.558;2022-11-15T03:35:51;6.60;;;5.05;;
7737;SDS011;29398;45.328;5.558;2022-11-15T03:37:14;7.13;;;4.90;;
7737;SDS011;29398;45.328;5.558;2022-11-15T03:38:36;5.93;;;4.78;;
7737;SDS011;29398;45.328;5.558;2022-11-15T03:39:59;6.07;;;4.50;;
7737;SDS011;29398;45.328;5.558;2022-11-15T03:41:21;6.40;;;4.68;;
7737;SDS011;29398;45.328;5.558;2022-11-15T03:42:44;5.97;;;4.78;;
7737;SDS011;29398;45.328;5.558;2022-11-15T03:44:11;5.20;;;4.65;;
7737;SDS011;29398;45.328;5.558;2022-11-15T03:45:37;5.03;;;4.38;;
7737;SDS011;29398;45.328;5.558;2022-11-15T03:47:03;4.55;;;4.15;;
7737;SDS011;29398;45.328;5.558;2022-11-15T03:48:30;4.55;;;4.10;;
7737;SDS011;29398;45.328;5.558;2022-11-15T03:49:57;5.00;;;4.60;;
7737;SDS011;29398;45.328;5.558;2022-11-15T03:51:21;6.35;;;4.18;;
7737;SDS011;29398;45.328;5.558;2022-11-15T03:52:42;4.75;;;4.25;;
7737;SDS011;29398;45.328;5.558;2022-11-15T03:54:05;5.63;;;4.45;;
7737;SDS011;29398;45.328;5.558;2022-11-15T03:55:25;6.85;;;4.57;;
7737;SDS011;29398;45.328;5.558;2022-11-15T03:58:05;7.15;;;5.05;;
7737;SDS011;29398;45.328;5.558;2022-11-15T03:59:26;6.43;;;5.30;;
7737;SDS011;29398;45.328;5.558;2022-11-15T04:00:46;7.07;;;5.95;;
7737;SDS011;29398;45.328;5.558;2022-11-15T04:02:06;6.90;;;6.30;;
7737;SDS011;29398;45.328;5.558;2022-11-15T04:03:25;8.48;;;6.70;;
7737;SDS011;29398;45.328;5.558;2022-11-15T04:04:46;9.82;;;7.15;;
7737;SDS011;29398;45.328;5.558;2022-11-15T04:06:07;8.93;;;8.02;;
7737;SDS011;29398;45.328;5.558;2022-11-15T04:07:27;8.95;;;8.05;;
7737;SDS011;29398;45.328;5.558;2022-11-15T04:08:48;9.27;;;8.30;;
7737;SDS011;29398;45.328;5.558;2022-11-15T04:10:08;10.65;;;8.30;;
7737;SDS011;29398;45.328;5.558;2022-11-15T04:11:30;8.85;;;7.78;;
7737;SDS011;29398;45.328;5.558;2022-11-15T04:12:49;8.60;;;7.80;;
7737;SDS011;29398;45.328;5.558;2022-11-15T04:14:09;8.05;;;7.22;;
7737;SDS011;29398;45.328;5.558;2022-11-15T04:15:28;7.07;;;6.38;;
7737;SDS011;29398;45.328;5.558;2022-11-15T04:16:49;7.18;;;5.90;;
7737;SDS011;29398;45.328;5.558;2022-11-15T04:18:08;7.15;;;6.32;;
7737;SDS011;29398;45.328;5.558;2022-11-15T04:19:29;7.63;;;6.22;;
7737;SDS011;29398;45.328;5.558;2022-11-15T04:21:08;7.85;;;5.90;;
7737;SDS011;29398;45.328;5.558;2022-11-15T04:22:47;5.43;;;4.93;;
7737;SDS011;29398;45.328;5.558;2022-11-15T04:24:25;5.88;;;5.28;;
7737;SDS011;29398;45.328;5.558;2022-11-15T04:27:07;5.80;;;5.03;;
7737;SDS011;29398;45.328;5.558;2022-11-15T04:28:28;5.90;;;5.40;;
7737;SDS011;29398;45.328;5.558;2022-11-15T04:29:48;7.22;;;6.50;;
7737;SDS011;29398;45.328;5.558;2022-11-15T04:31:09;7.70;;;7.00;;
7737;SDS011;29398;45.328;5.558;2022-11-15T04:32:30;8.00;;;7.20;;
7737;SDS011;29398;45.328;5.558;2022-11-15T04:33:49;7.43;;;6.72;;
7737;SDS011;29398;45.328;5.558;2022-11-15T04:35:10;9.77;;;7.88;;
7737;SDS011;29398;45.328;5.558;2022-11-15T04:36:31;7.95;;;7.15;;
7737;SDS011;29398;45.328;5.558;2022-11-15T04:38:10;8.52;;;7.10;;
7737;SDS011;29398;45.328;5.558;2022-11-15T04:39:31;8.93;;;8.02;;
7737;SDS011;29398;45.328;5.558;2022-11-15T04:40:51;9.70;;;8.70;;
7737;SDS011;29398;45.328;5.558;2022-11-15T04:43:32;10.88;;;9.77;;
7737;SDS011;29398;45.328;5.558;2022-11-15T04:44:52;11.93;;;10.65;;
7737;SDS011;29398;45.328;5.558;2022-11-15T04:46:12;16.40;;;11.70;;
7737;SDS011;29398;45.328;5.558;2022-11-15T04:47:33;12.93;;;10.88;;
7737;SDS011;29398;45.328;5.558;2022-11-15T04:48:52;11.25;;;10.00;;
7737;SDS011;29398;45.328;5.558;2022-11-15T04:50:14;12.20;;;10.52;;
7737;SDS011;29398;45.328;5.558;2022-11-15T04:51:36;15.73;;;10.35;;
7737;SDS011;29398;45.328;5.558;2022-11-15T04:52:56;11.10;;;10.05;;
7737;SDS011;29398;45.328;5.558;2022-11-15T04:55:36;15.50;;;12.10;;
7737;SDS011;29398;45.328;5.558;2022-11-15T04:56:57;13.13;;;11.00;;
7737;SDS011;29398;45.328;5.558;2022-11-15T04:58:16;16.30;;;12.68;;
7737;SDS011;29398;45.328;5.558;2022-11-15T04:59:37;12.48;;;11.18;;
7737;SDS011;29398;45.328;5.558;2022-11-15T05:00:56;13.85;;;11.90;;
7737;SDS011;29398;45.328;5.558;2022-11-15T05:02:17;12.48;;;11.18;;
7737;SDS011;29398;45.328;5.558;2022-11-15T05:03:37;11.45;;;10.25;;
7737;SDS011;29398;45.328;5.558;2022-11-15T05:05:16;12.60;;;11.30;;
7737;SDS011;29398;45.328;5.558;2022-11-15T05:06:37;10.68;;;9.60;;
7737;SDS011;29398;45.328;5.558;2022-11-15T05:07:57;9.52;;;8.63;;
7737;SDS011;29398;45.328;5.558;2022-11-15T05:09:18;9.57;;;8.57;;
7737;SDS011;29398;45.328;5.558;2022-11-15T05:10:39;8.43;;;6.75;;
7737;SDS011;29398;45.328;5.558;2022-11-15T05:13:20;6.53;;;5.93;;
7737;SDS011;29398;45.328;5.558;2022-11-15T05:14:39;6.50;;;5.85;;
7737;SDS011;29398;45.328;5.558;2022-11-15T05:16:00;6.03;;;5.43;;
7737;SDS011;29398;45.328;5.558;2022-11-15T05:17:21;5.40;;;4.78;;
7737;SDS011;29398;45.328;5.558;2022-11-15T05:18:40;5.50;;;5.00;;
7737;SDS011;29398;45.328;5.558;2022-11-15T05:20:01;4.80;;;4.28;;
7737;SDS011;29398;45.328;5.558;2022-11-15T05:21:22;4.97;;;4.57;;
7737;SDS011;29398;45.328;5.558;2022-11-15T05:22:42;4.78;;;4.25;;
7737;SDS011;29398;45.328;5.558;2022-11-15T05:24:04;4.78;;;4.38;;
7737;SDS011;29398;45.328;5.558;2022-11-15T05:25:25;5.18;;;4.68;;
7737;SDS011;29398;45.328;5.558;2022-11-15T05:26:45;5.07;;;4.57;;
7737;SDS011;29398;45.328;5.558;2022-11-15T05:28:05;5.78;;;5.18;;
7737;SDS011;29398;45.328;5.558;2022-11-15T05:29:29;6.72;;;6.13;;
7737;SDS011;29398;45.328;5.558;2022-11-15T05:30:49;8.40;;;7.57;;
7737;SDS011;29398;45.328;5.558;2022-11-15T05:32:09;12.27;;;10.18;;
7737;SDS011;29398;45.328;5.558;2022-11-15T05:33:32;15.45;;;11.95;;
7737;SDS011;29398;45.328;5.558;2022-11-15T05:34:52;19.17;;;14.75;;
7737;SDS011;29398;45.328;5.558;2022-11-15T05:36:15;24.58;;;18.40;;
7737;SDS011;29398;45.328;5.558;2022-11-15T05:37:37;32.35;;;24.35;;
7737;SDS011;29398;45.328;5.558;2022-11-15T05:38:59;36.25;;;26.80;;
7737;SDS011;29398;45.328;5.558;2022-11-15T05:40:20;34.30;;;26.10;;
7737;SDS011;29398;45.328;5.558;2022-11-15T05:41:41;39.67;;;28.45;;
7737;SDS011;29398;45.328;5.558;2022-11-15T05:43:04;45.22;;;30.27;;
7737;SDS011;29398;45.328;5.558;2022-11-15T05:44:25;46.78;;;31.60;;
7737;SDS011;29398;45.328;5.558;2022-11-15T05:45:47;54.38;;;34.53;;
7737;SDS011;29398;45.328;5.558;2022-11-15T05:47:07;58.05;;;37.90;;
7737;SDS011;29398;45.328;5.558;2022-11-15T05:48:30;61.72;;;39.63;;
7737;SDS011;29398;45.328;5.558;2022-11-15T05:49:50;57.47;;;38.75;;
7737;SDS011;29398;45.328;5.558;2022-11-15T05:51:12;57.13;;;37.17;;
7737;SDS011;29398;45.328;5.558;2022-11-15T05:52:36;52.72;;;36.40;;
7737;SDS011;29398;45.328;5.558;2022-11-15T05:53:57;49.92;;;35.13;;
7737;SDS011;29398;45.328;5.558;2022-11-15T05:55:19;50.58;;;34.92;;
7737;SDS011;29398;45.328;5.558;2022-11-15T05:56:43;54.58;;;36.22;;
7737;SDS011;29398;45.328;5.558;2022-11-15T05:58:04;49.03;;;35.15;;
7737;SDS011;29398;45.328;5.558;2022-11-15T05:59:23;48.55;;;33.42;;
7737;SDS011;29398;45.328;5.558;2022-11-15T06:00:44;43.88;;;31.75;;
7737;SDS011;29398;45.328;5.558;2022-11-15T06:02:04;42.20;;;30.65;;
7737;SDS011;29398;45.328;5.558;2022-11-15T06:03:25;41.20;;;29.45;;
7737;SDS011;29398;45.328;5.558;2022-11-15T06:04:45;42.13;;;30.98;;
7737;SDS011;29398;45.328;5.558;2022-11-15T06:06:06;43.00;;;28.83;;
7737;SDS011;29398;45.328;5.558;2022-11-15T06:07:25;36.35;;;27.15;;
7737;SDS011;29398;45.328;5.558;2022-11-15T06:10:08;35.40;;;25.80;;
7737;SDS011;29398;45.328;5.558;2022-11-15T06:11:29;33.45;;;25.42;;
7737;SDS011;29398;45.328;5.558;2022-11-15T06:12:55;35.47;;;26.80;;
7737;SDS011;29398;45.328;5.558;2022-11-15T06:14:16;33.33;;;23.45;;
7737;SDS011;29398;45.328;5.558;2022-11-15T06:16:58;31.23;;;23.60;;
7737;SDS011;29398;45.328;5.558;2022-11-15T06:18:18;32.13;;;22.85;;
7737;SDS011;29398;45.328;5.558;2022-11-15T06:19:37;30.27;;;24.13;;
7737;SDS011;29398;45.328;5.558;2022-11-15T06:20:58;33.78;;;26.65;;
7737;SDS011;29398;45.328;5.558;2022-11-15T06:22:19;28.85;;;23.15;;
7737;SDS011;29398;45.328;5.558;2022-11-15T06:23:39;29.60;;;23.48;;
7737;SDS011;29398;45.328;5.558;2022-11-15T06:25:00;29.60;;;22.42;;
7737;SDS011;29398;45.328;5.558;2022-11-15T06:26:21;33.90;;;25.25;;
7737;SDS011;29398;45.328;5.558;2022-11-15T06:27:42;25.40;;;21.40;;
7737;SDS011;29398;45.328;5.558;2022-11-15T06:29:02;30.08;;;23.13;;
7737;SDS011;29398;45.328;5.558;2022-11-15T06:30:24;25.13;;;22.05;;
7737;SDS011;29398;45.328;5.558;2022-11-15T06:31:45;28.70;;;22.50;;
7737;SDS011;29398;45.328;5.558;2022-11-15T06:33:05;31.92;;;23.95;;
7737;SDS011;29398;45.328;5.558;2022-11-15T06:34:27;28.45;;;22.10;;
7737;SDS011;29398;45.328;5.558;2022-11-15T06:35:47;27.77;;;21.92;;
7737;SDS011;29398;45.328;5.558;2022-11-15T06:37:08;34.28;;;22.83;;
7737;SDS011;29398;45.328;5.558;2022-11-15T06:38:29;28.23;;;21.10;;
7737;SDS011;29398;45.328;5.558;2022-11-15T06:39:50;27.70;;;22.63;;
7737;SDS011;29398;45.328;5.558;2022-11-15T06:41:10;28.92;;;23.08;;
7737;SDS011;29398;45.328;5.558;2022-11-15T06:42:33;24.85;;;21.95;;
7737;SDS011;29398;45.328;5.558;2022-11-15T06:43:54;29.40;;;22.15;;
7737;SDS011;29398;45.328;5.558;2022-11-15T06:45:16;26.23;;;22.48;;
7737;SDS011;29398;45.328;5.558;2022-11-15T06:47:56;22.90;;;17.17;;
7737;SDS011;29398;45.328;5.558;2022-11-15T06:49:16;21.92;;;18.52;;
7737;SDS011;29398;45.328;5.558;2022-11-15T06:50:37;21.05;;;18.27;;
7737;SDS011;29398;45.328;5.558;2022-11-15T06:51:57;22.10;;;18.38;;
7737;SDS011;29398;45.328;5.558;2022-11-15T06:53:18;21.20;;;17.45;;
7737;SDS011;29398;45.328;5.558;2022-11-15T06:54:38;21.65;;;18.52;;
7737;SDS011;29398;45.328;5.558;2022-11-15T06:55:59;25.33;;;19.70;;
7737;SDS011;29398;45.328;5.558;2022-11-15T06:57:19;24.48;;;19.67;;
7737;SDS011;29398;45.328;5.558;2022-11-15T06:58:41;22.20;;;19.10;;
7737;SDS011;29398;45.328;5.558;2022-11-15T07:00:02;21.25;;;18.30;;
7737;SDS011;29398;45.328;5.558;2022-11-15T07:01:22;22.50;;;19.17;;
7737;SDS011;29398;45.328;5.558;2022-11-15T07:02:43;23.55;;;18.65;;
7737;SDS011;29398;45.328;5.558;2022-11-15T07:04:04;19.63;;;17.52;;
7737;SDS011;29398;45.328;5.558;2022-11-15T07:05:24;20.52;;;16.33;;
7737;SDS011;29398;45.328;5.558;2022-11-15T07:06:45;20.15;;;16.17;;
7737;SDS011;29398;45.328;5.558;2022-11-15T07:08:06;23.70;;;20.88;;
7737;SDS011;29398;45.328;5.558;2022-11-15T07:09:28;22.15;;;18.30;;
7737;SDS011;29398;45.328;5.558;2022-11-15T07:12:09;19.33;;;16.23;;
7737;SDS011;29398;45.328;5.558;2022-11-15T07:14:53;23.50;;;18.67;;
7737;SDS011;29398;45.328;5.558;2022-11-15T07:16:14;20.70;;;18.15;;
7737;SDS011;29398;45.328;5.558;2022-11-15T07:17:34;25.67;;;20.52;;
7737;SDS011;29398;45.328;5.558;2022-11-15T07:18:54;26.10;;;20.45;;
7737;SDS011;29398;45.328;5.558;2022-11-15T07:20:15;25.52;;;19.70;;
7737;SDS011;29398;45.328;5.558;2022-11-15T07:21:36;26.15;;;22.17;;
7737;SDS011;29398;45.328;5.558;2022-11-15T07:22:59;29.42;;;22.90;;
7737;SDS011;29398;45.328;5.558;2022-11-15T07:24:20;24.25;;;18.70;;
7737;SDS011;29398;45.328;5.558;2022-11-15T07:27:01;18.95;;;16.27;;
7737;SDS011;29398;45.328;5.558;2022-11-15T07:28:22;15.05;;;13.45;;
7737;SDS011;29398;45.328;5.558;2022-11-15T07:29:42;15.48;;;13.88;;
7737;SDS011;29398;45.328;5.558;2022-11-15T07:31:05;17.35;;;15.52;;
7737;SDS011;29398;45.328;5.558;2022-11-15T07:32:27;16.05;;;14.23;;
7737;SDS011;29398;45.328;5.558;2022-11-15T07:33:47;15.15;;;13.35;;
7737;SDS011;29398;45.328;5.558;2022-11-15T07:35:08;15.77;;;12.68;;
7737;SDS011;29398;45.328;5.558;2022-11-15T07:36:27;17.90;;;12.68;;
7737;SDS011;29398;45.328;5.558;2022-11-15T07:39:15;17.30;;;12.90;;
7737;SDS011;29398;45.328;5.558;2022-11-15T07:40:35;14.10;;;12.70;;
7737;SDS011;29398;45.328;5.558;2022-11-15T07:43:30;14.82;;;13.02;;
7737;SDS011;29398;45.328;5.558;2022-11-15T07:44:52;17.17;;;14.15;;
7737;SDS011;29398;45.328;5.558;2022-11-15T07:46:14;16.35;;;14.15;;
7737;SDS011;29398;45.328;5.558;2022-11-15T07:47:34;15.88;;;14.18;;
7737;SDS011;29398;45.328;5.558;2022-11-15T07:48:55;16.83;;;15.00;;
7737;SDS011;29398;45.328;5.558;2022-11-15T07:50:15;18.70;;;15.45;;
7737;SDS011;29398;45.328;5.558;2022-11-15T07:51:36;16.65;;;14.88;;
7737;SDS011;29398;45.328;5.558;2022-11-15T07:52:57;17.52;;;15.73;;
7737;SDS011;29398;45.328;5.558;2022-11-15T07:54:19;22.05;;;17.85;;
7737;SDS011;29398;45.328;5.558;2022-11-15T07:55:39;24.83;;;19.23;;
7737;SDS011;29398;45.328;5.558;2022-11-15T07:57:01;20.20;;;16.55;;
7737;SDS011;29398;45.328;5.558;2022-11-15T07:58:21;18.83;;;16.55;;
7737;SDS011;29398;45.328;5.558;2022-11-15T07:59:41;20.25;;;17.25;;
7737;SDS011;29398;45.328;5.558;2022-11-15T08:01:02;18.25;;;15.88;;
7737;SDS011;29398;45.328;5.558;2022-11-15T08:02:24;17.67;;;15.77;;
7737;SDS011;29398;45.328;5.558;2022-11-15T08:03:45;18.13;;;16.23;;
7737;SDS011;29398;45.328;5.558;2022-11-15T08:05:06;19.88;;;15.82;;
7737;SDS011;29398;45.328;5.558;2022-11-15T08:06:27;18.45;;;15.60;;
7737;SDS011;29398;45.328;5.558;2022-11-15T08:09:08;17.65;;;15.85;;
7737;SDS011;29398;45.328;5.558;2022-11-15T08:10:32;18.85;;;16.88;;
7737;SDS011;29398;45.328;5.558;2022-11-15T08:11:53;19.75;;;16.83;;
7737;SDS011;29398;45.328;5.558;2022-11-15T08:13:14;18.08;;;15.70;;
7737;SDS011;29398;45.328;5.558;2022-11-15T08:14:34;18.25;;;15.73;;
7737;SDS011;29398;45.328;5.558;2022-11-15T08:15:57;20.40;;;16.80;;
7737;SDS011;29398;45.328;5.558;2022-11-15T08:17:18;18.25;;;16.25;;
7737;SDS011;29398;45.328;5.558;2022-11-15T08:18:40;19.02;;;15.85;;
7737;SDS011;29398;45.328;5.558;2022-11-15T08:20:02;20.92;;;15.68;;
7737;SDS011;29398;45.328;5.558;2022-11-15T08:21:23;21.33;;;16.33;;
7737;SDS011;29398;45.328;5.558;2022-11-15T08:22:44;19.83;;;16.10;;
7737;SDS011;29398;45.328;5.558;2022-11-15T08:25:26;17.95;;;14.85;;
7737;SDS011;29398;45.328;5.558;2022-11-15T08:26:48;19.48;;;15.98;;
7737;SDS011;29398;45.328;5.558;2022-11-15T08:29:30;16.80;;;15.00;;
7737;SDS011;29398;45.328;5.558;2022-11-15T08:30:50;19.00;;;15.63;;
7737;SDS011;29398;45.328;5.558;2022-11-15T08:32:11;20.80;;;15.88;;
7737;SDS011;29398;45.328;5.558;2022-11-15T08:33:32;19.08;;;15.30;;
7737;SDS011;29398;45.328;5.558;2022-11-15T08:34:55;20.45;;;16.55;;
7737;SDS011;29398;45.328;5.558;2022-11-15T08:36:16;16.95;;;15.13;;
7737;SDS011;29398;45.328;5.558;2022-11-15T08:37:37;19.35;;;15.32;;
7737;SDS011;29398;45.328;5.558;2022-11-15T08:40:17;18.20;;;14.02;;
7737;SDS011;29398;45.328;5.558;2022-11-15T08:41:38;16.30;;;13.35;;
7737;SDS011;29398;45.328;5.558;2022-11-15T08:42:59;17.27;;;13.85;;
7737;SDS011;29398;45.328;5.558;2022-11-15T08:44:21;16.80;;;14.73;;
7737;SDS011;29398;45.328;5.558;2022-11-15T08:45:42;16.00;;;13.35;;
7737;SDS011;29398;45.328;5.558;2022-11-15T08:47:04;15.40;;;13.65;;
7737;SDS011;29398;45.328;5.558;2022-11-15T08:48:25;15.07;;;12.48;;
7737;SDS011;29398;45.328;5.558;2022-11-15T08:49:46;13.93;;;11.93;;